Time;durP1;ratioP1;P1;durP2;ratioP2;P2;SDS_P1;SDS_P2;PMS_P1;PMS_P2;Temp;Humidity;BMP_temperature;BMP_pressure;BME280_temperature;BME280_humidity;BME280_pressure;Samples;Min_cycle;Max_cycle;Signal;HPM_P1;HPM_P2
2023/01/30 00:01:22;;;;;;;15.30;6.70;;;-6.60;99.90;;;;;;4117147;28;20486;-67
2023/01/30 00:03:25;;;;;;;11.47;6.63;;;-6.60;99.90;;;;;;4146925;28;20220;-66
2023/01/30 00:05:25;;;;;;;14.30;6.80;;;-6.60;99.90;;;;;;4127423;28;20490;-66
2023/01/30 00:07:26;;;;;;;17.63;6.80;;;-6.60;99.90;;;;;;4115678;28;20513;-65
2023/01/30 00:09:27;;;;;;;11.83;6.90;;;-6.70;99.90;;;;;;4116733;28;20278;-65
2023/01/30 00:11:28;;;;;;;10.67;6.57;;;-6.70;99.90;;;;;;4133179;28;20209;-64
2023/01/30 00:13:29;;;;;;;14.13;6.47;;;-6.70;99.90;;;;;;4116147;28;20314;-65
2023/01/30 00:15:30;;;;;;;11.70;7.17;;;-6.60;99.90;;;;;;4133785;28;21006;-65
2023/01/30 00:17:31;;;;;;;13.67;6.57;;;-6.80;99.90;;;;;;4115279;28;20464;-70
2023/01/30 00:19:32;;;;;;;11.33;6.50;;;-6.80;99.90;;;;;;4133595;28;20194;-66
2023/01/30 00:21:33;;;;;;;12.57;6.77;;;-6.80;99.90;;;;;;4132802;28;20433;-65
2023/01/30 00:23:35;;;;;;;11.10;6.60;;;-6.70;99.90;;;;;;4115945;28;20222;-66
2023/01/30 00:25:36;;;;;;;14.00;7.45;;;-6.70;99.90;;;;;;4115835;28;20197;-65
2023/01/30 00:27:36;;;;;;;11.23;7.00;;;-6.80;99.90;;;;;;4115668;28;20191;-66
2023/01/30 00:29:37;;;;;;;15.13;7.07;;;-7.00;99.90;;;;;;4133068;28;20189;-63
2023/01/30 00:31:38;;;;;;;15.00;6.90;;;-7.10;99.90;;;;;;4132809;28;20186;-65
2023/01/30 00:33:39;;;;;;;12.43;6.30;;;-7.00;99.90;;;;;;4156773;28;20236;-65
2023/01/30 00:35:50;;;;;;;15.60;6.83;;;-7.00;99.90;;;;;;4165447;28;20450;-65
2023/01/30 00:37:51;;;;;;;13.50;6.60;;;-7.00;99.90;;;;;;4147885;28;20205;-65
2023/01/30 00:39:51;;;;;;;10.70;5.23;;;-7.00;99.90;;;;;;4131511;28;20194;-66
2023/01/30 00:48:53;;;;;;;12.07;7.07;;;-7.10;99.90;;;;;;4150194;28;20536;-66
2023/01/30 00:50:53;;;;;;;11.97;6.00;;;-7.10;99.90;;;;;;4164977;28;20424;-66
2023/01/30 00:52:54;;;;;;;13.20;6.20;;;-7.10;99.90;;;;;;4165772;28;20295;-65
2023/01/30 00:54:55;;;;;;;12.45;6.80;;;-7.00;99.90;;;;;;4148641;28;20181;-66
2023/01/30 00:56:56;;;;;;;13.47;6.67;;;-6.90;99.90;;;;;;4165477;28;20195;-65
2023/01/30 00:58:57;;;;;;;11.37;5.60;;;-6.90;99.90;;;;;;4165889;28;20211;-67
2023/01/30 01:00:58;;;;;;;11.93;5.77;;;-6.90;99.90;;;;;;4146284;28;20204;-65
2023/01/30 01:02:58;;;;;;;11.17;6.20;;;-7.10;99.90;;;;;;4165315;28;20673;-66
2023/01/30 01:04:59;;;;;;;14.00;6.17;;;-7.10;99.90;;;;;;4131328;28;20190;-66
2023/01/30 01:07:00;;;;;;;13.63;6.77;;;-7.30;99.90;;;;;;4131846;28;20636;-65
2023/01/30 01:09:01;;;;;;;10.80;5.47;;;-7.30;99.90;;;;;;4148045;28;20245;-65
2023/01/30 01:11:02;;;;;;;12.93;6.50;;;-7.40;99.90;;;;;;4165072;28;20208;-66
2023/01/30 01:13:03;;;;;;;10.53;5.70;;;-7.30;99.90;;;;;;4147761;28;20316;-66
2023/01/30 01:15:04;;;;;;;21.87;6.83;;;-7.20;99.90;;;;;;4165211;28;20185;-66
2023/01/30 01:17:05;;;;;;;12.23;6.37;;;-7.10;99.90;;;;;;4164807;28;21045;-65
2023/01/30 01:19:05;;;;;;;13.00;6.27;;;-7.10;99.90;;;;;;4167725;28;20447;-66
2023/01/30 01:21:06;;;;;;;10.03;5.20;;;-7.30;99.90;;;;;;4147168;28;20716;-65
2023/01/30 01:23:10;;;;;;;11.53;5.93;;;-7.40;99.90;;;;;;4165317;28;20193;-65
2023/01/30 01:25:11;;;;;;;11.73;6.53;;;-7.30;99.90;;;;;;4165257;28;20320;-65
2023/01/30 01:27:12;;;;;;;12.70;5.88;;;-7.40;99.90;;;;;;4147670;28;20201;-66
2023/01/30 01:29:15;;;;;;;10.47;5.70;;;-7.30;99.90;;;;;;4147437;28;20363;-65
2023/01/30 01:31:16;;;;;;;10.13;5.82;;;-7.40;99.90;;;;;;4164969;28;20208;-66
2023/01/30 01:33:17;;;;;;;8.53;5.17;;;-7.40;99.90;;;;;;4147641;28;20217;-66
2023/01/30 01:35:18;;;;;;;10.13;5.10;;;-7.10;99.90;;;;;;4165370;28;20177;-63
2023/01/30 01:37:19;;;;;;;10.70;5.40;;;-7.10;99.90;;;;;;4165513;28;20189;-66
2023/01/30 01:39:20;;;;;;;9.85;5.20;;;-7.20;99.90;;;;;;4165516;28;20197;-65
2023/01/30 01:41:21;;;;;;;10.17;5.97;;;-7.20;99.90;;;;;;4163938;28;20185;-63
2023/01/30 01:43:24;;;;;;;11.70;6.17;;;-7.20;99.90;;;;;;4147267;28;20197;-65
2023/01/30 01:45:24;;;;;;;10.95;5.03;;;-7.20;99.90;;;;;;4147414;28;20205;-66
2023/01/30 01:47:26;;;;;;;8.80;5.20;;;-7.10;99.90;;;;;;4147098;28;20201;-65
2023/01/30 01:49:33;;;;;;;10.05;4.78;;;-7.00;99.90;;;;;;4147167;28;20284;-65
2023/01/30 01:51:45;;;;;;;11.73;5.70;;;-7.10;99.90;;;;;;4146837;28;20215;-66
2023/01/30 01:53:53;;;;;;;14.97;5.07;;;-7.10;99.90;;;;;;4147472;28;20848;-65
2023/01/30 01:55:57;;;;;;;11.10;4.77;;;-7.20;99.90;;;;;;4163770;28;20450;-66
2023/01/30 01:58:31;;;;;;;8.43;4.77;;;-7.00;99.90;;;;;;4147677;28;20479;-65
2023/01/30 02:00:32;;;;;;;8.88;4.05;;;-7.10;99.90;;;;;;4163677;28;20844;-65
2023/01/30 02:02:34;;;;;;;10.03;4.77;;;-7.00;99.90;;;;;;4164688;28;20700;-66
2023/01/30 02:06:57;;;;;;;11.55;4.90;;;-7.00;99.90;;;;;;4164679;28;20413;-63
2023/01/30 02:09:05;;;;;;;8.87;4.27;;;-7.20;99.90;;;;;;4140304;28;20291;-65
2023/01/30 02:11:13;;;;;;;8.05;4.43;;;-7.10;99.90;;;;;;4130853;28;20437;-64
2023/01/30 02:13:15;;;;;;;7.80;4.43;;;-7.10;99.90;;;;;;4148354;28;20288;-65
2023/01/30 02:15:18;;;;;;;8.83;4.03;;;-7.00;99.90;;;;;;4130772;28;20425;-65
2023/01/30 02:17:19;;;;;;;9.30;4.77;;;-6.80;99.90;;;;;;4130996;28;20441;-64
2023/01/30 02:20:02;;;;;;;9.83;3.97;;;-6.70;99.90;;;;;;4148056;28;20477;-64
2023/01/30 02:22:43;;;;;;;7.97;4.17;;;-6.50;99.90;;;;;;4131095;28;20464;-65
2023/01/30 02:25:27;;;;;;;10.60;5.00;;;-5.70;99.90;;;;;;4131416;28;20442;-65
2023/01/30 02:28:03;;;;;;;7.43;4.10;;;-5.10;99.90;;;;;;4130388;28;20439;-65
2023/01/30 02:30:28;;;;;;;9.87;5.00;;;-4.70;99.90;;;;;;4113776;28;21087;-65
2023/01/30 02:32:40;;;;;;;9.30;3.97;;;-4.30;99.90;;;;;;4129638;28;20443;-65
2023/01/30 02:34:56;;;;;;;7.40;4.57;;;-4.20;99.90;;;;;;4147844;28;20441;-66
2023/01/30 02:37:28;;;;;;;7.47;4.50;;;-4.10;99.90;;;;;;4130346;28;20511;-64
2023/01/30 02:40:04;;;;;;;6.30;3.90;;;-4.00;99.90;;;;;;4114267;28;20584;-63
2023/01/30 02:42:32;;;;;;;8.17;5.10;;;-4.00;99.90;;;;;;4132787;28;20444;-64
2023/01/30 02:44:49;;;;;;;10.27;4.67;;;-4.10;99.90;;;;;;4147619;28;20412;-64
2023/01/30 02:47:00;;;;;;;9.57;5.83;;;-4.00;99.90;;;;;;4129917;28;20475;-66
2023/01/30 02:49:29;;;;;;;9.17;4.80;;;-3.90;99.90;;;;;;4130873;28;21022;-65
2023/01/30 02:51:35;;;;;;;8.87;4.17;;;-3.80;99.90;;;;;;4130566;28;20443;-64
2023/01/30 02:53:36;;;;;;;6.63;3.53;;;-3.70;99.90;;;;;;4118056;28;20473;-64
2023/01/30 02:55:41;;;;;;;7.90;4.20;;;-3.90;99.90;;;;;;4138215;28;20497;-64
2023/01/30 02:57:42;;;;;;;8.93;3.90;;;-3.80;99.90;;;;;;4130315;28;20456;-65
2023/01/30 02:59:48;;;;;;;6.47;3.97;;;-3.70;99.90;;;;;;4147153;28;20836;-64
2023/01/30 03:02:21;;;;;;;7.53;4.17;;;-3.60;99.90;;;;;;4130193;28;20398;-65
2023/01/30 03:05:17;;;;;;;6.00;3.87;;;-3.60;99.90;;;;;;4127798;28;20487;-65
2023/01/30 03:07:48;;;;;;;9.50;4.20;;;-3.40;99.90;;;;;;4128466;28;20447;-65
2023/01/30 03:10:35;;;;;;;7.77;4.30;;;-3.40;99.90;;;;;;4125100;28;20483;-65
2023/01/30 03:12:52;;;;;;;7.73;4.20;;;-3.40;99.90;;;;;;4069499;28;20556;-64
2023/01/30 03:15:28;;;;;;;6.13;3.70;;;-3.50;99.90;;;;;;4130130;28;20953;-65
2023/01/30 03:17:31;;;;;;;7.93;4.03;;;-3.40;99.90;;;;;;4124717;28;20437;-65
2023/01/30 03:19:33;;;;;;;6.47;3.70;;;-3.30;99.90;;;;;;4129659;28;20516;-64
2023/01/30 03:21:34;;;;;;;6.67;4.27;;;-3.30;99.90;;;;;;4146861;28;20483;-65
2023/01/30 03:23:35;;;;;;;6.07;3.47;;;-3.30;99.90;;;;;;4130932;28;20433;-65
2023/01/30 03:25:39;;;;;;;7.40;4.20;;;-3.30;99.90;;;;;;4148948;28;21494;-64
2023/01/30 03:27:40;;;;;;;6.90;3.93;;;-3.30;99.90;;;;;;4133227;28;20224;-64
2023/01/30 03:29:41;;;;;;;7.10;4.07;;;-3.30;99.90;;;;;;4117042;28;20875;-64
2023/01/30 03:31:42;;;;;;;8.43;4.20;;;-3.30;99.90;;;;;;4133312;28;20186;-64
2023/01/30 03:33:42;;;;;;;8.13;4.53;;;-3.40;99.90;;;;;;4116686;28;20213;-65
2023/01/30 03:35:43;;;;;;;6.63;3.87;;;-3.40;99.90;;;;;;4133125;28;20285;-65
2023/01/30 03:37:47;;;;;;;7.27;4.10;;;-3.40;99.90;;;;;;4133466;28;20281;-65
2023/01/30 03:39:48;;;;;;;9.60;5.13;;;-3.40;99.90;;;;;;4117396;28;20183;-65
2023/01/30 03:41:48;;;;;;;8.67;4.30;;;-3.40;99.90;;;;;;4134140;28;20932;-65
2023/01/30 03:43:49;;;;;;;7.33;4.43;;;-3.50;99.90;;;;;;4151455;28;20287;-65
2023/01/30 03:45:50;;;;;;;8.23;5.00;;;-3.60;99.90;;;;;;4150396;28;20593;-65
2023/01/30 03:47:51;;;;;;;9.83;5.43;;;-3.60;99.90;;;;;;4132778;28;20237;-65
2023/01/30 03:49:51;;;;;;;8.37;4.93;;;-3.60;99.90;;;;;;4132391;28;20204;-64
2023/01/30 03:51:52;;;;;;;10.37;5.07;;;-3.70;99.90;;;;;;4132667;28;20197;-64
2023/01/30 03:53:52;;;;;;;7.37;4.87;;;-3.60;99.90;;;;;;4149964;28;20213;-65
2023/01/30 03:55:55;;;;;;;8.30;5.07;;;-3.60;99.90;;;;;;4150012;28;20748;-65
2023/01/30 03:57:56;;;;;;;9.13;4.67;;;-3.60;99.90;;;;;;4132763;28;20213;-64
2023/01/30 03:59:57;;;;;;;11.80;5.33;;;-3.60;99.90;;;;;;4132433;28;20437;-65
2023/01/30 04:01:58;;;;;;;9.63;5.20;;;-3.60;99.90;;;;;;4116383;28;20487;-68
2023/01/30 04:03:59;;;;;;;9.93;5.70;;;-3.60;99.90;;;;;;4150003;28;20714;-64
2023/01/30 04:05:59;;;;;;;10.00;5.53;;;-3.50;99.90;;;;;;4149904;28;20571;-65
2023/01/30 04:08:00;;;;;;;11.37;6.07;;;-3.50;99.90;;;;;;4131581;28;20455;-65
2023/01/30 04:10:01;;;;;;;9.37;5.37;;;-3.50;99.90;;;;;;4131934;28;20788;-64
2023/01/30 04:12:02;;;;;;;13.97;6.10;;;-3.70;99.90;;;;;;4131765;28;20244;-67
2023/01/30 04:14:02;;;;;;;9.73;5.63;;;-3.70;99.90;;;;;;4132308;28;20217;-64
2023/01/30 04:16:16;;;;;;;10.30;5.73;;;-3.60;99.90;;;;;;4149652;28;20192;-64
2023/01/30 04:18:16;;;;;;;9.07;5.63;;;-3.60;99.90;;;;;;4131945;28;20201;-64
2023/01/30 04:20:19;;;;;;;10.37;5.57;;;-3.60;99.90;;;;;;4131505;28;20436;-64
2023/01/30 04:22:19;;;;;;;10.07;5.20;;;-3.70;99.90;;;;;;4149587;28;20662;-65
2023/01/30 04:24:20;;;;;;;9.30;5.23;;;-3.70;99.90;;;;;;4149240;28;20517;-64
2023/01/30 04:26:21;;;;;;;10.70;5.57;;;-3.70;99.90;;;;;;4149750;28;20188;-65
2023/01/30 04:28:21;;;;;;;9.97;5.40;;;-3.70;99.90;;;;;;4132416;28;20220;-65
2023/01/30 04:30:22;;;;;;;9.10;5.33;;;-3.70;99.90;;;;;;4149288;28;20239;-65
2023/01/30 04:32:25;;;;;;;8.83;4.87;;;-3.50;99.90;;;;;;4148906;28;20672;-65
2023/01/30 04:34:26;;;;;;;7.70;5.03;;;-3.40;99.90;;;;;;4148801;28;20299;-65
2023/01/30 04:36:28;;;;;;;10.73;4.57;;;-3.20;99.90;;;;;;4131283;28;20958;-65
2023/01/30 04:38:31;;;;;;;9.17;5.07;;;-3.20;99.90;;;;;;4115716;28;20203;-65
2023/01/30 04:40:31;;;;;;;8.07;4.80;;;-3.10;99.90;;;;;;4134213;28;20424;-65
2023/01/30 04:42:32;;;;;;;8.83;4.40;;;-3.00;99.90;;;;;;4131559;28;20500;-65
2023/01/30 04:44:33;;;;;;;7.83;4.60;;;-2.90;99.90;;;;;;4148074;28;20221;-64
2023/01/30 04:46:33;;;;;;;8.97;5.17;;;-2.90;99.90;;;;;;4149000;28;20177;-65
2023/01/30 04:48:34;;;;;;;8.10;5.03;;;-3.00;99.90;;;;;;4131851;28;20194;-65
2023/01/30 04:50:35;;;;;;;8.23;4.30;;;-2.90;99.90;;;;;;4131277;28;20190;-65
2023/01/30 04:52:36;;;;;;;9.13;5.37;;;-2.70;99.90;;;;;;4149146;28;20189;-65
2023/01/30 04:54:38;;;;;;;8.73;4.67;;;-2.60;99.90;;;;;;4148980;28;20435;-65
2023/01/30 04:56:38;;;;;;;10.80;6.33;;;-2.70;99.90;;;;;;4115223;28;20253;-64
2023/01/30 04:58:39;;;;;;;9.20;4.40;;;-2.70;99.90;;;;;;4131505;28;20453;-63
2023/01/30 05:00:40;;;;;;;9.07;4.43;;;-2.70;99.90;;;;;;4131569;28;20274;-64
2023/01/30 05:02:41;;;;;;;7.27;4.63;;;-2.70;99.90;;;;;;4149822;28;20213;-64
2023/01/30 05:04:42;;;;;;;9.97;6.07;;;-2.60;99.90;;;;;;4149545;28;20491;-64
2023/01/30 05:06:42;;;;;;;11.10;6.50;;;-2.70;99.90;;;;;;4139635;28;20777;-64
2023/01/30 05:08:47;;;;;;;10.33;5.57;;;-2.70;99.90;;;;;;4152775;28;20664;-64
2023/01/30 05:10:48;;;;;;;10.73;6.50;;;-2.70;99.90;;;;;;4144578;28;20225;-64
2023/01/30 05:12:49;;;;;;;12.57;7.17;;;-2.70;99.90;;;;;;4145475;28;20464;-64
2023/01/30 05:14:49;;;;;;;12.63;6.77;;;-2.70;99.90;;;;;;4148396;28;20445;-64
2023/01/30 05:16:51;;;;;;;10.13;5.43;;;-2.80;99.90;;;;;;4150308;28;20428;-65
2023/01/30 05:18:51;;;;;;;9.13;5.57;;;-2.90;99.90;;;;;;4151215;28;20849;-67
2023/01/30 05:20:52;;;;;;;11.33;6.53;;;-2.90;99.90;;;;;;4149410;28;20424;-64
2023/01/30 05:22:53;;;;;;;9.20;6.17;;;-2.70;99.90;;;;;;4149221;28;20203;-65
2023/01/30 05:24:54;;;;;;;10.07;5.70;;;-2.70;99.90;;;;;;4132996;28;20175;-64
2023/01/30 05:26:55;;;;;;;12.07;5.77;;;-2.60;99.90;;;;;;4150844;28;20193;-66
2023/01/30 05:28:57;;;;;;;10.90;5.63;;;-2.50;99.90;;;;;;4149740;28;20455;-64
2023/01/30 05:31:01;;;;;;;8.17;5.13;;;-2.40;99.90;;;;;;4131452;28;20594;-63
2023/01/30 05:33:02;;;;;;;5.40;3.77;;;-2.30;99.90;;;;;;4132236;28;20503;-63
2023/01/30 05:35:03;;;;;;;7.27;4.67;;;-2.30;99.90;;;;;;4116427;28;20430;-64
2023/01/30 05:37:04;;;;;;;8.87;5.40;;;-2.30;99.90;;;;;;4131999;28;20581;-65
2023/01/30 05:39:05;;;;;;;11.87;5.50;;;-2.50;99.90;;;;;;4131967;28;20456;-64
2023/01/30 05:41:07;;;;;;;10.40;5.73;;;-2.70;99.90;;;;;;4131264;28;20989;-64
2023/01/30 05:43:08;;;;;;;13.10;5.23;;;-2.80;99.90;;;;;;4115730;28;20583;-65
2023/01/30 05:45:09;;;;;;;8.63;5.10;;;-2.90;99.90;;;;;;4149347;28;20447;-64
2023/01/30 05:47:10;;;;;;;9.10;5.60;;;-2.80;99.90;;;;;;4114691;28;20573;-64
2023/01/30 05:49:11;;;;;;;10.77;6.07;;;-2.70;99.90;;;;;;4131451;28;20457;-64
2023/01/30 05:51:25;;;;;;;10.43;5.23;;;-2.60;99.90;;;;;;4148228;28;20204;-64
2023/01/30 05:53:30;;;;;;;24.77;9.13;;;-2.60;99.90;;;;;;4148597;28;20212;-64
2023/01/30 05:55:30;;;;;;;20.43;10.37;;;-2.60;99.90;;;;;;4130752;28;20432;-66
2023/01/30 05:57:31;;;;;;;10.57;5.83;;;-2.70;99.90;;;;;;4148338;28;20436;-64
2023/01/30 05:59:33;;;;;;;10.70;5.67;;;-2.60;99.90;;;;;;4148209;28;20203;-64
2023/01/30 06:01:34;;;;;;;18.10;9.37;;;-2.50;99.90;;;;;;4147825;28;20182;-65
2023/01/30 06:03:35;;;;;;;9.23;5.37;;;-2.50;99.90;;;;;;4148027;28;20478;-65
2023/01/30 06:05:37;;;;;;;11.00;4.57;;;-2.50;99.90;;;;;;4130256;28;20199;-64
2023/01/30 06:07:38;;;;;;;9.50;5.23;;;-2.40;99.90;;;;;;4129967;28;20941;-65
2023/01/30 06:09:38;;;;;;;11.67;5.53;;;-2.30;99.90;;;;;;4114400;28;20457;-65
2023/01/30 06:11:39;;;;;;;8.30;4.60;;;-2.30;99.90;;;;;;4130450;28;20193;-66
2023/01/30 06:13:40;;;;;;;9.23;5.30;;;-2.20;99.90;;;;;;4130536;28;20647;-65
2023/01/30 06:15:41;;;;;;;12.63;6.50;;;-2.10;99.90;;;;;;4115136;28;20191;-65
2023/01/30 06:17:42;;;;;;;11.83;5.30;;;-2.30;99.90;;;;;;4146444;28;20439;-65
2023/01/30 06:19:43;;;;;;;9.20;5.00;;;-2.20;99.90;;;;;;4146401;28;20177;-65
2023/01/30 06:21:45;;;;;;;9.27;5.50;;;-2.10;99.90;;;;;;4114548;28;20520;-65
2023/01/30 06:23:46;;;;;;;11.30;6.93;;;-2.00;99.90;;;;;;4130351;28;20179;-65
2023/01/30 06:25:49;;;;;;;10.47;5.67;;;-2.00;99.90;;;;;;4147477;28;20427;-65
2023/01/30 06:27:50;;;;;;;7.97;4.60;;;-2.00;99.90;;;;;;4129937;28;20292;-65
2023/01/30 06:29:50;;;;;;;9.57;5.03;;;-2.10;99.90;;;;;;4129715;28;20429;-66
2023/01/30 06:31:51;;;;;;;12.87;5.87;;;-2.00;99.70;;;;;;4129924;28;20226;-65
2023/01/30 06:33:52;;;;;;;7.57;4.57;;;-2.00;99.90;;;;;;4147957;28;20292;-65
2023/01/30 06:35:52;;;;;;;13.90;5.27;;;-2.10;99.90;;;;;;4130350;28;20181;-65
2023/01/30 06:37:54;;;;;;;11.97;5.80;;;-2.20;99.90;;;;;;4147776;28;20209;-66
2023/01/30 06:39:55;;;;;;;12.17;5.73;;;-2.10;99.90;;;;;;4149856;28;20178;-65
2023/01/30 06:41:55;;;;;;;10.10;4.57;;;-2.00;99.90;;;;;;4148261;28;20493;-65
2023/01/30 06:43:56;;;;;;;7.50;4.23;;;-1.90;99.90;;;;;;4147102;28;20445;-65
2023/01/30 06:46:00;;;;;;;6.67;4.00;;;-1.80;98.90;;;;;;4130174;28;20194;-65
2023/01/30 06:48:01;;;;;;;8.73;4.63;;;-1.90;99.90;;;;;;4129871;28;20221;-65
2023/01/30 06:50:02;;;;;;;8.40;5.23;;;-1.80;99.90;;;;;;4147766;28;20999;-65
2023/01/30 06:52:03;;;;;;;9.20;4.97;;;-1.70;99.90;;;;;;4129990;28;20433;-65
2023/01/30 06:54:04;;;;;;;8.03;5.27;;;-1.80;99.90;;;;;;4147377;28;20216;-65
2023/01/30 06:56:05;;;;;;;7.10;4.10;;;-2.00;99.90;;;;;;4129909;28;20186;-65
2023/01/30 06:58:13;;;;;;;7.37;4.50;;;-2.00;99.90;;;;;;4147241;28;20494;-65
2023/01/30 07:00:19;;;;;;;8.80;5.87;;;-2.10;99.90;;;;;;4146726;28;20440;-65
2023/01/30 07:02:20;;;;;;;8.40;4.70;;;-2.10;99.90;;;;;;4147288;28;20960;-65
2023/01/30 07:04:20;;;;;;;8.63;4.73;;;-2.10;99.90;;;;;;4147199;28;20432;-65
2023/01/30 07:06:21;;;;;;;7.70;5.27;;;-2.10;99.90;;;;;;4147371;28;20221;-65
2023/01/30 07:08:22;;;;;;;10.03;6.43;;;-1.90;99.90;;;;;;4146909;28;20287;-65
2023/01/30 07:10:25;;;;;;;8.00;5.00;;;-1.90;99.90;;;;;;4146972;28;20186;-65
2023/01/30 07:12:26;;;;;;;10.07;5.67;;;-1.90;99.90;;;;;;4147117;28;20932;-65
2023/01/30 07:14:26;;;;;;;11.03;5.70;;;-2.00;99.90;;;;;;4129342;28;20850;-65
2023/01/30 07:16:28;;;;;;;11.17;6.00;;;-2.10;99.90;;;;;;4147115;28;20516;-65
2023/01/30 07:18:29;;;;;;;11.70;6.07;;;-2.00;99.90;;;;;;4137481;28;20221;-65
2023/01/30 07:20:30;;;;;;;7.43;4.90;;;-2.00;99.90;;;;;;4151265;28;20499;-65
2023/01/30 07:22:31;;;;;;;9.27;5.50;;;-2.10;99.90;;;;;;4145518;28;20436;-65
2023/01/30 07:24:31;;;;;;;10.77;5.83;;;-2.10;99.90;;;;;;4129477;28;20198;-65
2023/01/30 07:26:32;;;;;;;10.63;5.20;;;-2.10;99.90;;;;;;4146718;28;20440;-65
2023/01/30 07:28:33;;;;;;;8.50;5.40;;;-2.10;99.90;;;;;;4146946;28;20217;-65
2023/01/30 07:30:34;;;;;;;10.20;5.30;;;-2.10;99.90;;;;;;4129750;28;20950;-65
2023/01/30 07:32:35;;;;;;;12.07;5.80;;;-2.10;99.90;;;;;;4130776;28;20181;-65
2023/01/30 07:34:36;;;;;;;10.40;5.60;;;-2.30;99.90;;;;;;4147193;28;20842;-65
2023/01/30 07:36:36;;;;;;;11.93;5.63;;;-2.30;99.90;;;;;;4129510;28;20175;-65
2023/01/30 07:38:37;;;;;;;10.03;4.93;;;-2.30;99.90;;;;;;4129342;28;20208;-65
2023/01/30 07:40:38;;;;;;;9.07;5.50;;;-2.20;99.90;;;;;;4145194;28;20189;-65
2023/01/30 07:42:39;;;;;;;12.10;5.57;;;-2.10;99.90;;;;;;4148298;28;20196;-65
2023/01/30 07:44:39;;;;;;;9.10;4.63;;;-2.00;99.90;;;;;;4147560;28;20188;-65
2023/01/30 07:46:40;;;;;;;6.67;4.20;;;-1.80;99.90;;;;;;4113889;28;20195;-65
2023/01/30 07:48:44;;;;;;;7.17;4.47;;;-1.70;99.90;;;;;;4130114;28;20203;-66
2023/01/30 07:50:46;;;;;;;5.73;3.53;;;-1.60;99.90;;;;;;4146589;28;20185;-66
2023/01/30 07:52:46;;;;;;;6.87;3.63;;;-1.40;99.90;;;;;;4146655;28;20428;-66
2023/01/30 07:54:47;;;;;;;7.33;3.87;;;-1.20;99.90;;;;;;4129028;28;20445;-66
2023/01/30 07:56:48;;;;;;;11.33;8.90;;;-0.90;99.90;;;;;;4129075;28;20201;-65
2023/01/30 07:58:49;;;;;;;7.30;4.70;;;-1.00;99.90;;;;;;4129142;28;20202;-66
2023/01/30 08:00:55;;;;;;;6.37;5.00;;;-1.20;99.90;;;;;;4128858;28;20190;-66
2023/01/30 08:02:56;;;;;;;7.83;4.87;;;-1.00;99.90;;;;;;4129613;28;20484;-65
2023/01/30 08:04:59;;;;;;;8.63;5.07;;;-1.00;99.90;;;;;;4112961;28;20447;-68
2023/01/30 08:07:00;;;;;;;6.00;3.67;;;-0.80;99.90;;;;;;4146484;28;20196;-66
2023/01/30 08:09:00;;;;;;;6.90;3.70;;;-0.70;99.90;;;;;;4146661;28;20445;-65
2023/01/30 08:11:01;;;;;;;9.13;4.33;;;-0.70;99.90;;;;;;4146900;28;20246;-66
2023/01/30 08:13:02;;;;;;;5.33;3.33;;;-0.60;99.90;;;;;;4149559;28;20222;-65
2023/01/30 08:15:05;;;;;;;6.90;4.03;;;-0.60;99.90;;;;;;4132461;28;20187;-65
2023/01/30 08:17:06;;;;;;;14.80;8.10;;;-0.40;99.90;;;;;;4149674;28;20819;-63
2023/01/30 08:19:06;;;;;;;6.47;3.60;;;-0.30;99.90;;;;;;4115871;28;20447;-64
2023/01/30 08:21:07;;;;;;;5.97;3.40;;;-0.50;99.90;;;;;;4131109;28;20187;-65
2023/01/30 08:23:08;;;;;;;4.63;3.27;;;-0.50;99.90;;;;;;4132062;28;20183;-66
2023/01/30 08:25:09;;;;;;;4.13;2.70;;;-0.30;99.90;;;;;;4149187;28;20241;-65
2023/01/30 08:27:09;;;;;;;5.97;3.30;;;-0.20;99.90;;;;;;4131640;28;20196;-65
2023/01/30 08:29:10;;;;;;;5.70;2.97;;;-0.10;99.90;;;;;;4150444;28;20211;-65
2023/01/30 08:31:13;;;;;;;4.17;3.70;;;0.00;99.90;;;;;;4150082;28;20191;-65
2023/01/30 08:33:14;;;;;;;3.60;2.13;;;0.10;99.90;;;;;;4149048;28;20222;-65
2023/01/30 08:35:15;;;;;;;3.60;1.80;;;0.10;99.90;;;;;;4131293;28;20439;-65
2023/01/30 08:37:16;;;;;;;2.90;1.87;;;0.10;99.90;;;;;;4115077;28;20849;-65
2023/01/30 08:39:17;;;;;;;2.70;1.83;;;0.20;99.90;;;;;;4131189;28;20200;-65
2023/01/30 08:41:17;;;;;;;3.30;1.87;;;0.40;99.90;;;;;;4148529;28;20185;-65
2023/01/30 08:43:18;;;;;;;2.53;1.80;;;0.50;99.90;;;;;;4131489;28;20196;-65
2023/01/30 08:45:19;;;;;;;2.97;1.80;;;0.30;99.90;;;;;;4131480;28;20193;-65
2023/01/30 08:47:20;;;;;;;2.50;1.97;;;0.30;99.90;;;;;;4131271;28;20854;-65
2023/01/30 08:49:20;;;;;;;3.13;2.10;;;0.10;99.90;;;;;;4148898;28;20939;-65
2023/01/30 08:51:21;;;;;;;2.87;1.80;;;0.20;99.90;;;;;;4130913;28;20249;-65
2023/01/30 08:53:22;;;;;;;2.43;1.60;;;0.30;99.90;;;;;;4131224;28;20309;-65
2023/01/30 08:55:23;;;;;;;2.63;1.90;;;0.30;99.90;;;;;;4131341;28;20200;-65
2023/01/30 08:57:24;;;;;;;2.40;1.50;;;0.40;99.90;;;;;;4121861;28;20429;-65
2023/01/30 08:59:25;;;;;;;4.43;2.20;;;0.40;99.90;;;;;;4133796;28;20189;-66
2023/01/30 09:01:26;;;;;;;2.57;1.87;;;0.60;99.90;;;;;;4146384;28;20198;-66
2023/01/30 09:03:27;;;;;;;3.17;2.10;;;0.90;99.90;;;;;;4148176;28;20656;-66
2023/01/30 09:05:28;;;;;;;3.30;1.73;;;1.10;99.90;;;;;;4146216;28;20439;-66
2023/01/30 09:08:20;;;;;;;2.47;1.70;;;1.00;99.90;;;;;;4131865;28;20774;-66
2023/01/30 09:10:23;;;;;;;3.47;2.10;;;1.00;99.90;;;;;;4121275;28;20484;-65
2023/01/30 09:12:24;;;;;;;3.83;2.00;;;1.20;99.90;;;;;;4119177;28;20433;-65
2023/01/30 09:14:24;;;;;;;1.73;1.47;;;1.30;99.90;;;;;;4130617;28;20503;-65
2023/01/30 09:16:25;;;;;;;2.03;1.43;;;1.30;99.90;;;;;;4148452;28;20196;-65
2023/01/30 09:18:26;;;;;;;2.40;1.70;;;1.40;99.90;;;;;;4130416;28;20280;-66
2023/01/30 09:20:26;;;;;;;2.00;1.60;;;1.50;99.90;;;;;;4122031;28;20188;-66
2023/01/30 09:22:27;;;;;;;3.87;2.33;;;1.60;99.90;;;;;;4147063;28;20241;-66
2023/01/30 09:24:29;;;;;;;4.20;2.40;;;1.90;99.90;;;;;;4143452;28;20618;-66
2023/01/30 09:26:30;;;;;;;2.63;1.50;;;2.10;99.90;;;;;;4127791;28;20213;-66
2023/01/30 09:28:32;;;;;;;2.13;1.30;;;2.20;99.40;;;;;;4149646;28;20464;-66
2023/01/30 09:30:33;;;;;;;6.67;3.17;;;2.20;99.10;;;;;;4126547;28;20437;-66
2023/01/30 09:32:36;;;;;;;4.00;2.27;;;2.00;99.90;;;;;;4141504;28;20461;-66
2023/01/30 09:34:36;;;;;;;2.83;1.60;;;2.10;99.90;;;;;;4141095;28;20976;-66
2023/01/30 09:36:38;;;;;;;2.90;1.57;;;2.20;99.30;;;;;;4124419;28;20443;-65
2023/01/30 09:38:39;;;;;;;2.40;1.63;;;2.20;99.90;;;;;;4139881;28;20241;-66
2023/01/30 09:40:58;;;;;;;5.97;1.60;;;2.40;99.90;;;;;;4125001;28;20421;-66
2023/01/30 09:43:32;;;;;;;4.07;2.00;;;2.50;98.50;;;;;;4138114;28;20218;-65
2023/01/30 09:45:43;;;;;;;3.80;2.50;;;2.70;98.70;;;;;;4131223;28;20417;-64
2023/01/30 09:48:18;;;;;;;1.80;1.57;;;3.00;97.90;;;;;;4129803;28;20476;-65
2023/01/30 09:50:53;;;;;;;2.80;1.83;;;3.30;96.20;;;;;;4123240;28;20414;-67
2023/01/30 09:53:17;;;;;;;2.80;1.37;;;3.50;96.10;;;;;;4156705;28;20430;-66
2023/01/30 09:55:22;;;;;;;3.30;1.70;;;3.70;94.80;;;;;;4115678;28;20431;-66
2023/01/30 09:57:25;;;;;;;3.37;1.63;;;3.70;94.50;;;;;;4128775;28;20485;-66
2023/01/30 09:59:57;;;;;;;2.50;1.50;;;3.80;94.40;;;;;;4131874;28;21077;-68
2023/01/30 10:02:22;;;;;;;3.53;1.93;;;4.20;93.40;;;;;;4129733;28;20971;-66
2023/01/30 10:04:36;;;;;;;3.33;1.50;;;4.80;91.30;;;;;;4140569;28;20190;-65
2023/01/30 10:06:51;;;;;;;2.70;1.77;;;5.20;88.00;;;;;;4122204;28;20201;-65
2023/01/30 10:09:26;;;;;;;2.80;1.77;;;5.40;85.70;;;;;;4118777;28;20317;-65
2023/01/30 10:11:55;;;;;;;2.43;1.70;;;5.50;85.20;;;;;;4112810;28;20211;-66
2023/01/30 10:14:23;;;;;;;1.80;1.33;;;5.50;83.40;;;;;;4133968;28;20694;-66
2023/01/30 10:16:35;;;;;;;1.30;1.20;;;5.40;82.90;;;;;;4129761;28;20198;-67
2023/01/30 10:19:17;;;;;;;2.00;1.47;;;5.70;83.70;;;;;;4125347;28;20237;-67
2023/01/30 10:21:59;;;;;;;1.83;1.33;;;6.40;79.20;;;;;;4121214;28;20212;-70
2023/01/30 10:24:27;;;;;;;1.60;1.43;;;6.80;76.60;;;;;;4146920;28;20276;-69
2023/01/30 10:26:30;;;;;;;2.33;1.70;;;7.30;75.50;;;;;;4138089;28;20265;-68
2023/01/30 10:28:43;;;;;;;2.07;1.67;;;7.40;71.70;;;;;;4125204;28;20265;-69
2023/01/30 10:30:51;;;;;;;1.77;1.20;;;7.30;73.10;;;;;;4102921;28;20246;-69
2023/01/30 10:32:59;;;;;;;3.37;1.60;;;6.60;73.90;;;;;;4130318;28;20188;-70
2023/01/30 10:35:16;;;;;;;1.43;1.33;;;6.10;78.40;;;;;;4148906;28;20185;-68
2023/01/30 10:37:34;;;;;;;1.90;1.30;;;5.90;79.60;;;;;;4115798;28;20191;-69
2023/01/30 10:40:03;;;;;;;1.70;1.60;;;6.00;80.60;;;;;;4126957;28;20530;-69
2023/01/30 10:42:11;;;;;;;1.40;1.10;;;5.80;79.60;;;;;;4121394;28;20190;-68
2023/01/30 10:44:13;;;;;;;2.00;1.43;;;5.20;83.20;;;;;;4139864;28;20680;-69
2023/01/30 10:46:20;;;;;;;1.50;1.20;;;4.70;86.10;;;;;;4122946;28;20182;-68
2023/01/30 10:48:54;;;;;;;1.20;1.10;;;4.30;90.00;;;;;;4121314;28;20225;-69
2023/01/30 10:50:59;;;;;;;1.60;1.23;;;3.70;92.50;;;;;;4145665;28;20798;-68
2023/01/30 10:53:14;;;;;;;2.27;1.50;;;3.80;92.20;;;;;;4115907;28;20299;-68
2023/01/30 10:55:30;;;;;;;1.43;1.03;;;3.70;92.90;;;;;;4114291;28;20239;-68
2023/01/30 10:58:05;;;;;;;1.53;0.90;;;3.90;92.90;;;;;;4131012;28;20432;-69
2023/01/30 11:00:29;;;;;;;4.27;2.10;;;3.90;92.40;;;;;;4124485;28;20601;-68
2023/01/30 11:02:53;;;;;;;15.07;4.70;;;3.80;93.20;;;;;;4118453;28;20419;-69